sensor_id;sensor_type;location;lat;lon;timestamp;pressure;altitude;pressure_sealevel;temperature;humidity
14232;BME280;7200;52.194;9.900;2022-08-19T00:00:28;100228.75;;;20.14;100.00
14232;BME280;7200;52.194;9.900;2022-08-19T00:02:54;100221.66;;;20.13;100.00
14232;BME280;7200;52.194;9.900;2022-08-19T00:05:20;100213.63;;;20.13;100.00
14232;BME280;7200;52.194;9.900;2022-08-19T00:07:47;100214.63;;;20.12;100.00
14232;BME280;7200;52.194;9.900;2022-08-19T00:10:14;100206.22;;;20.05;100.00
14232;BME280;7200;52.194;9.900;2022-08-19T00:12:41;100206.81;;;19.97;100.00
14232;BME280;7200;52.194;9.900;2022-08-19T00:15:10;100199.03;;;19.94;100.00
14232;BME280;7200;52.194;9.900;2022-08-19T00:17:40;100208.03;;;19.93;100.00
14232;BME280;7200;52.194;9.900;2022-08-19T00:20:07;100209.00;;;19.92;100.00
14232;BME280;7200;52.194;9.900;2022-08-19T00:22:33;100199.41;;;19.78;100.00
14232;BME280;7200;52.194;9.900;2022-08-19T00:24:58;100199.25;;;19.69;100.00
14232;BME280;7200;52.194;9.900;2022-08-19T00:27:23;100203.59;;;19.70;100.00
14232;BME280;7200;52.194;9.900;2022-08-19T00:29:49;100194.72;;;19.69;100.00
14232;BME280;7200;52.194;9.900;2022-08-19T00:32:15;100213.59;;;19.68;100.00
14232;BME280;7200;52.194;9.900;2022-08-19T00:34:41;100203.88;;;19.67;100.00
14232;BME280;7200;52.194;9.900;2022-08-19T00:37:06;100197.63;;;19.66;100.00
14232;BME280;7200;52.194;9.900;2022-08-19T00:39:31;100185.13;;;19.55;100.00
14232;BME280;7200;52.194;9.900;2022-08-19T00:41:57;100196.06;;;19.52;100.00
14232;BME280;7200;52.194;9.900;2022-08-19T00:44:27;100201.41;;;19.52;100.00
14232;BME280;7200;52.194;9.900;2022-08-19T00:46:56;100192.13;;;19.45;100.00
14232;BME280;7200;52.194;9.900;2022-08-19T00:49:35;100187.38;;;19.37;100.00
14232;BME280;7200;52.194;9.900;2022-08-19T00:52:15;100208.56;;;19.40;100.00
14232;BME280;7200;52.194;9.900;2022-08-19T00:54:42;100203.66;;;19.34;100.00
14232;BME280;7200;52.194;9.900;2022-08-19T00:57:10;100199.91;;;19.37;100.00
14232;BME280;7200;52.194;9.900;2022-08-19T00:59:42;100194.94;;;19.43;100.00
14232;BME280;7200;52.194;9.900;2022-08-19T01:02:11;100193.69;;;19.36;100.00
14232;BME280;7200;52.194;9.900;2022-08-19T01:04:36;100200.88;;;19.36;100.00
14232;BME280;7200;52.194;9.900;2022-08-19T01:07:02;100205.16;;;19.38;100.00
14232;BME280;7200;52.194;9.900;2022-08-19T01:09:28;100207.34;;;19.44;100.00
14232;BME280;7200;52.194;9.900;2022-08-19T01:11:54;100206.72;;;19.41;100.00
14232;BME280;7200;52.194;9.900;2022-08-19T01:14:20;100211.25;;;19.40;100.00
14232;BME280;7200;52.194;9.900;2022-08-19T01:16:46;100205.16;;;19.38;100.00
14232;BME280;7200;52.194;9.900;2022-08-19T01:19:30;100196.25;;;19.38;100.00
14232;BME280;7200;52.194;9.900;2022-08-19T01:22:06;100180.91;;;19.29;100.00
14232;BME280;7200;52.194;9.900;2022-08-19T01:24:34;100170.44;;;19.14;100.00
14232;BME280;7200;52.194;9.900;2022-08-19T01:26:59;100174.06;;;19.13;100.00
14232;BME280;7200;52.194;9.900;2022-08-19T01:29:28;100172.59;;;19.09;100.00
14232;BME280;7200;52.194;9.900;2022-08-19T01:31:54;100173.31;;;19.00;100.00
14232;BME280;7200;52.194;9.900;2022-08-19T01:34:19;100184.97;;;18.99;100.00
14232;BME280;7200;52.194;9.900;2022-08-19T01:36:46;100180.59;;;18.98;100.00
14232;BME280;7200;52.194;9.900;2022-08-19T01:39:19;100174.97;;;18.90;100.00
14232;BME280;7200;52.194;9.900;2022-08-19T01:41:46;100168.66;;;18.91;100.00
14232;BME280;7200;52.194;9.900;2022-08-19T01:44:11;100155.66;;;18.86;100.00
14232;BME280;7200;52.194;9.900;2022-08-19T01:46:37;100152.84;;;18.88;100.00
14232;BME280;7200;52.194;9.900;2022-08-19T01:49:04;100164.72;;;18.83;100.00
14232;BME280;7200;52.194;9.900;2022-08-19T01:51:29;100155.22;;;18.79;100.00
14232;BME280;7200;52.194;9.900;2022-08-19T01:53:56;100160.56;;;18.79;100.00
14232;BME280;7200;52.194;9.900;2022-08-19T01:56:23;100172.19;;;18.91;100.00
14232;BME280;7200;52.194;9.900;2022-08-19T01:58:58;100170.94;;;18.84;100.00
14232;BME280;7200;52.194;9.900;2022-08-19T02:01:25;100173.16;;;18.90;100.00
14232;BME280;7200;52.194;9.900;2022-08-19T02:03:50;100175.25;;;18.98;100.00
14232;BME280;7200;52.194;9.900;2022-08-19T02:06:18;100181.22;;;19.01;100.00
14232;BME280;7200;52.194;9.900;2022-08-19T02:08:44;100171.94;;;18.94;100.00
14232;BME280;7200;52.194;9.900;2022-08-19T02:11:19;100167.59;;;18.93;100.00
14232;BME280;7200;52.194;9.900;2022-08-19T02:13:44;100174.88;;;18.91;100.00
14232;BME280;7200;52.194;9.900;2022-08-19T02:16:10;100169.84;;;18.86;100.00
14232;BME280;7200;52.194;9.900;2022-08-19T02:18:35;100153.63;;;18.77;100.00
14232;BME280;7200;52.194;9.900;2022-08-19T02:21:00;100161.31;;;18.81;100.00
14232;BME280;7200;52.194;9.900;2022-08-19T02:23:25;100146.72;;;18.74;100.00
14232;BME280;7200;52.194;9.900;2022-08-19T02:25:52;100149.13;;;18.77;100.00
14232;BME280;7200;52.194;9.900;2022-08-19T02:28:17;100156.41;;;18.75;100.00
14232;BME280;7200;52.194;9.900;2022-08-19T02:30:43;100154.59;;;18.76;100.00
14232;BME280;7200;52.194;9.900;2022-08-19T02:33:08;100156.63;;;18.72;100.00
14232;BME280;7200;52.194;9.900;2022-08-19T02:35:33;100164.66;;;18.72;100.00
14232;BME280;7200;52.194;9.900;2022-08-19T02:37:59;100162.38;;;18.79;100.00
14232;BME280;7200;52.194;9.900;2022-08-19T02:40:50;100167.53;;;18.82;100.00
14232;BME280;7200;52.194;9.900;2022-08-19T02:43:17;100167.66;;;18.80;100.00
14232;BME280;7200;52.194;9.900;2022-08-19T02:45:42;100170.94;;;18.84;100.00
14232;BME280;7200;52.194;9.900;2022-08-19T02:48:08;100173.72;;;18.82;100.00
14232;BME280;7200;52.194;9.900;2022-08-19T02:50:37;100183.44;;;18.83;100.00
14232;BME280;7200;52.194;9.900;2022-08-19T02:53:02;100180.66;;;18.85;100.00
14232;BME280;7200;52.194;9.900;2022-08-19T02:55:28;100181.63;;;18.84;100.00
14232;BME280;7200;52.194;9.900;2022-08-19T02:57:53;100178.22;;;18.82;100.00
14232;BME280;7200;52.194;9.900;2022-08-19T03:00:19;100177.69;;;18.77;100.00
14232;BME280;7200;52.194;9.900;2022-08-19T03:02:44;100180.34;;;18.77;100.00
14232;BME280;7200;52.194;9.900;2022-08-19T03:05:10;100186.97;;;18.84;100.00
14232;BME280;7200;52.194;9.900;2022-08-19T03:07:36;100190.19;;;18.76;100.00
14232;BME280;7200;52.194;9.900;2022-08-19T03:10:02;100185.38;;;18.81;100.00
14232;BME280;7200;52.194;9.900;2022-08-19T03:12:27;100177.13;;;18.84;100.00
14232;BME280;7200;52.194;9.900;2022-08-19T03:14:53;100190.50;;;18.84;100.00
14232;BME280;7200;52.194;9.900;2022-08-19T03:17:19;100192.72;;;18.78;100.00
14232;BME280;7200;52.194;9.900;2022-08-19T03:19:44;100201.41;;;18.81;100.00
14232;BME280;7200;52.194;9.900;2022-08-19T03:22:10;100205.59;;;18.85;100.00
14232;BME280;7200;52.194;9.900;2022-08-19T03:24:35;100191.34;;;18.85;100.00
14232;BME280;7200;52.194;9.900;2022-08-19T03:27:01;100189.75;;;18.82;100.00
14232;BME280;7200;52.194;9.900;2022-08-19T03:29:30;100184.41;;;18.82;100.00
14232;BME280;7200;52.194;9.900;2022-08-19T03:32:01;100186.09;;;18.83;100.00
14232;BME280;7200;52.194;9.900;2022-08-19T03:34:30;100179.25;;;18.79;100.00
14232;BME280;7200;52.194;9.900;2022-08-19T03:36:58;100182.28;;;18.75;100.00
14232;BME280;7200;52.194;9.900;2022-08-19T03:39:26;100182.50;;;18.72;100.00
14232;BME280;7200;52.194;9.900;2022-08-19T03:41:53;100185.06;;;18.73;100.00
14232;BME280;7200;52.194;9.900;2022-08-19T03:44:21;100183.69;;;18.80;100.00
14232;BME280;7200;52.194;9.900;2022-08-19T03:46:49;100185.47;;;18.80;100.00
14232;BME280;7200;52.194;9.900;2022-08-19T03:49:15;100182.28;;;18.75;100.00
14232;BME280;7200;52.194;9.900;2022-08-19T03:51:42;100181.88;;;18.68;100.00
14232;BME280;7200;52.194;9.900;2022-08-19T03:54:11;100186.38;;;18.67;100.00
14232;BME280;7200;52.194;9.900;2022-08-19T03:56:38;100181.25;;;18.64;100.00
14232;BME280;7200;52.194;9.900;2022-08-19T03:59:06;100183.94;;;18.64;100.00
14232;BME280;7200;52.194;9.900;2022-08-19T04:01:32;100178.41;;;18.55;100.00
14232;BME280;7200;52.194;9.900;2022-08-19T04:03:58;100186.44;;;18.55;100.00
14232;BME280;7200;52.194;9.900;2022-08-19T04:06:30;100189.72;;;18.58;100.00
14232;BME280;7200;52.194;9.900;2022-08-19T04:08:57;100193.19;;;18.47;100.00
14232;BME280;7200;52.194;9.900;2022-08-19T04:11:29;100200.34;;;18.47;100.00
14232;BME280;7200;52.194;9.900;2022-08-19T04:13:55;100191.16;;;18.51;100.00
14232;BME280;7200;52.194;9.900;2022-08-19T04:16:22;100184.13;;;18.50;100.00
14232;BME280;7200;52.194;9.900;2022-08-19T04:18:48;100174.94;;;18.41;100.00
14232;BME280;7200;52.194;9.900;2022-08-19T04:21:20;100182.75;;;18.44;100.00
14232;BME280;7200;52.194;9.900;2022-08-19T04:23:46;100177.09;;;18.36;100.00
14232;BME280;7200;52.194;9.900;2022-08-19T04:26:23;100188.66;;;18.37;100.00
14232;BME280;7200;52.194;9.900;2022-08-19T04:28:49;100190.22;;;18.39;100.00
14232;BME280;7200;52.194;9.900;2022-08-19T04:31:18;100206.38;;;18.38;100.00
14232;BME280;7200;52.194;9.900;2022-08-19T04:33:44;100203.81;;;18.36;100.00
14232;BME280;7200;52.194;9.900;2022-08-19T04:36:19;100215.44;;;18.48;100.00
14232;BME280;7200;52.194;9.900;2022-08-19T04:38:46;100206.25;;;18.39;100.00
14232;BME280;7200;52.194;9.900;2022-08-19T04:41:11;100201.38;;;18.33;100.00
14232;BME280;7200;52.194;9.900;2022-08-19T04:43:55;100205.84;;;18.33;100.00
14232;BME280;7200;52.194;9.900;2022-08-19T04:46:20;100203.16;;;18.33;100.00
14232;BME280;7200;52.194;9.900;2022-08-19T04:48:46;100215.91;;;18.29;100.00
14232;BME280;7200;52.194;9.900;2022-08-19T04:51:12;100218.66;;;18.40;100.00
14232;BME280;7200;52.194;9.900;2022-08-19T04:53:40;100224.00;;;18.40;100.00
14232;BME280;7200;52.194;9.900;2022-08-19T04:56:14;100213.53;;;18.37;100.00
14232;BME280;7200;52.194;9.900;2022-08-19T04:58:42;100222.19;;;18.41;100.00
14232;BME280;7200;52.194;9.900;2022-08-19T05:01:09;100218.97;;;18.36;100.00
14232;BME280;7200;52.194;9.900;2022-08-19T05:03:36;100204.03;;;18.33;100.00
14232;BME280;7200;52.194;9.900;2022-08-19T05:06:10;100205.63;;;18.36;100.00
14232;BME280;7200;52.194;9.900;2022-08-19T05:08:39;100205.09;;;18.31;100.00
14232;BME280;7200;52.194;9.900;2022-08-19T05:11:36;100201.47;;;18.32;100.00
14232;BME280;7200;52.194;9.900;2022-08-19T05:14:05;100193.25;;;18.35;100.00
14232;BME280;7200;52.194;9.900;2022-08-19T05:16:31;100191.09;;;18.27;100.00
14232;BME280;7200;52.194;9.900;2022-08-19T05:18:56;100195.41;;;18.29;100.00
14232;BME280;7200;52.194;9.900;2022-08-19T05:21:41;100194.75;;;18.26;100.00
14232;BME280;7200;52.194;9.900;2022-08-19T05:24:26;100188.16;;;18.19;100.00
14232;BME280;7200;52.194;9.900;2022-08-19T05:26:53;100194.13;;;18.22;100.00
14232;BME280;7200;52.194;9.900;2022-08-19T05:29:22;100195.97;;;18.22;100.00
14232;BME280;7200;52.194;9.900;2022-08-19T05:31:48;100204.19;;;18.19;100.00
14232;BME280;7200;52.194;9.900;2022-08-19T05:34:18;100217.22;;;18.23;100.00
14232;BME280;7200;52.194;9.900;2022-08-19T05:36:46;100221.25;;;18.29;100.00
14232;BME280;7200;52.194;9.900;2022-08-19T05:39:16;100225.31;;;18.35;100.00
14232;BME280;7200;52.194;9.900;2022-08-19T05:41:44;100224.44;;;18.34;100.00
14232;BME280;7200;52.194;9.900;2022-08-19T05:44:10;100223.88;;;18.42;100.00
14232;BME280;7200;52.194;9.900;2022-08-19T05:46:37;100204.69;;;18.37;100.00
14232;BME280;7200;52.194;9.900;2022-08-19T05:49:07;100204.22;;;18.43;100.00
14232;BME280;7200;52.194;9.900;2022-08-19T05:51:34;100212.34;;;18.41;100.00
14232;BME280;7200;52.194;9.900;2022-08-19T05:54:01;100219.16;;;18.45;100.00
14232;BME280;7200;52.194;9.900;2022-08-19T05:56:30;100210.31;;;18.45;100.00
14232;BME280;7200;52.194;9.900;2022-08-19T05:58:56;100206.53;;;18.47;100.00
14232;BME280;7200;52.194;9.900;2022-08-19T06:01:24;100207.44;;;18.35;100.00
14232;BME280;7200;52.194;9.900;2022-08-19T06:03:50;100207.97;;;18.40;100.00
14232;BME280;7200;52.194;9.900;2022-08-19T06:06:16;100204.44;;;18.40;100.00
14232;BME280;7200;52.194;9.900;2022-08-19T06:08:42;100203.06;;;18.34;100.00
14232;BME280;7200;52.194;9.900;2022-08-19T06:11:36;100204.25;;;18.30;100.00
14232;BME280;7200;52.194;9.900;2022-08-19T06:14:06;100211.88;;;18.23;100.00
14232;BME280;7200;52.194;9.900;2022-08-19T06:16:34;100215.19;;;18.14;100.00
14232;BME280;7200;52.194;9.900;2022-08-19T06:19:01;100220.09;;;18.20;100.00
14232;BME280;7200;52.194;9.900;2022-08-19T06:21:28;100233.84;;;18.27;100.00
14232;BME280;7200;52.194;9.900;2022-08-19T06:23:56;100242.09;;;18.24;100.00
14232;BME280;7200;52.194;9.900;2022-08-19T06:26:22;100247.63;;;18.34;100.00
14232;BME280;7200;52.194;9.900;2022-08-19T06:28:48;100243.13;;;18.34;100.00
14232;BME280;7200;52.194;9.900;2022-08-19T06:31:21;100244.75;;;18.37;100.00
14232;BME280;7200;52.194;9.900;2022-08-19T06:33:47;100240.13;;;18.39;100.00
14232;BME280;7200;52.194;9.900;2022-08-19T06:36:40;100231.94;;;18.29;100.00
14232;BME280;7200;52.194;9.900;2022-08-19T06:39:12;100233.06;;;18.38;100.00
14232;BME280;7200;52.194;9.900;2022-08-19T06:41:41;100232.34;;;18.36;100.00
14232;BME280;7200;52.194;9.900;2022-08-19T06:44:07;100234.47;;;18.31;100.00
14232;BME280;7200;52.194;9.900;2022-08-19T06:46:32;100239.59;;;18.34;100.00
14232;BME280;7200;52.194;9.900;2022-08-19T06:48:58;100236.28;;;18.43;100.00
14232;BME280;7200;52.194;9.900;2022-08-19T06:51:25;100238.94;;;18.43;100.00
14232;BME280;7200;52.194;9.900;2022-08-19T06:53:52;100241.63;;;18.43;100.00
14232;BME280;7200;52.194;9.900;2022-08-19T06:56:22;100251.22;;;18.45;100.00
14232;BME280;7200;52.194;9.900;2022-08-19T06:58:51;100251.13;;;18.47;100.00
14232;BME280;7200;52.194;9.900;2022-08-19T07:01:19;100267.97;;;18.60;100.00
14232;BME280;7200;52.194;9.900;2022-08-19T07:03:44;100263.47;;;18.61;100.00
14232;BME280;7200;52.194;9.900;2022-08-19T07:06:14;100260.34;;;18.67;100.00
14232;BME280;7200;52.194;9.900;2022-08-19T07:08:46;100254.66;;;18.72;100.00
14232;BME280;7200;52.194;9.900;2022-08-19T07:11:15;100254.38;;;18.63;100.00
14232;BME280;7200;52.194;9.900;2022-08-19T07:13:41;100264.81;;;18.66;100.00
14232;BME280;7200;52.194;9.900;2022-08-19T07:16:11;100271.13;;;18.78;100.00
14232;BME280;7200;52.194;9.900;2022-08-19T07:18:37;100275.69;;;18.89;100.00
14232;BME280;7200;52.194;9.900;2022-08-19T07:21:05;100275.56;;;18.91;100.00
14232;BME280;7200;52.194;9.900;2022-08-19T07:23:32;100277.81;;;18.97;100.00
14232;BME280;7200;52.194;9.900;2022-08-19T07:25:57;100273.63;;;18.93;100.00
14232;BME280;7200;52.194;9.900;2022-08-19T07:28:23;100270.63;;;18.97;100.00
14232;BME280;7200;52.194;9.900;2022-08-19T07:30:49;100272.97;;;19.02;100.00
14232;BME280;7200;52.194;9.900;2022-08-19T07:33:15;100281.34;;;19.21;100.00
14232;BME280;7200;52.194;9.900;2022-08-19T07:35:41;100285.38;;;19.27;100.00
14232;BME280;7200;52.194;9.900;2022-08-19T07:38:07;100298.31;;;19.44;100.00
14232;BME280;7200;52.194;9.900;2022-08-19T07:40:32;100293.22;;;19.53;100.00
14232;BME280;7200;52.194;9.900;2022-08-19T07:42:57;100287.00;;;19.41;100.00
14232;BME280;7200;52.194;9.900;2022-08-19T07:45:23;100289.78;;;19.39;100.00
14232;BME280;7200;52.194;9.900;2022-08-19T07:47:48;100293.91;;;19.43;100.00
14232;BME280;7200;52.194;9.900;2022-08-19T07:50:15;100292.59;;;19.49;100.00
14232;BME280;7200;52.194;9.900;2022-08-19T07:52:40;100287.53;;;19.57;100.00
14232;BME280;7200;52.194;9.900;2022-08-19T07:55:10;100278.91;;;19.65;100.00
14232;BME280;7200;52.194;9.900;2022-08-19T07:57:36;100269.44;;;19.61;100.00
14232;BME280;7200;52.194;9.900;2022-08-19T08:00:03;100284.75;;;19.70;100.00
14232;BME280;7200;52.194;9.900;2022-08-19T08:02:29;100282.06;;;19.70;100.00
14232;BME280;7200;52.194;9.900;2022-08-19T08:04:54;100286.13;;;19.76;100.00
14232;BME280;7200;52.194;9.900;2022-08-19T08:07:38;100274.19;;;19.69;100.00
14232;BME280;7200;52.194;9.900;2022-08-19T08:10:22;100266.34;;;19.54;100.00
14232;BME280;7200;52.194;9.900;2022-08-19T08:12:47;100270.59;;;19.57;100.00
14232;BME280;7200;52.194;9.900;2022-08-19T08:15:15;100276.97;;;19.67;100.00
14232;BME280;7200;52.194;9.900;2022-08-19T08:17:42;100289.69;;;19.88;100.00
14232;BME280;7200;52.194;9.900;2022-08-19T08:20:08;100273.72;;;19.75;100.00
14232;BME280;7200;52.194;9.900;2022-08-19T08:22:36;100267.78;;;19.82;100.00
14232;BME280;7200;52.194;9.900;2022-08-19T08:25:23;100264.00;;;19.85;100.00
14232;BME280;7200;52.194;9.900;2022-08-19T08:27:49;100255.75;;;19.88;100.00
14232;BME280;7200;52.194;9.900;2022-08-19T08:30:28;100274.28;;;20.36;100.00
14232;BME280;7200;52.194;9.900;2022-08-19T08:32:53;100261.94;;;20.45;100.00
14232;BME280;7200;52.194;9.900;2022-08-19T08:35:21;100270.84;;;20.68;100.00
14232;BME280;7200;52.194;9.900;2022-08-19T08:37:51;100264.84;;;20.76;100.00
14232;BME280;7200;52.194;9.900;2022-08-19T08:40:53;100277.47;;;20.96;100.00
14232;BME280;7200;52.194;9.900;2022-08-19T08:43:38;100276.69;;;21.06;100.00
14232;BME280;7200;52.194;9.900;2022-08-19T08:46:29;100253.94;;;20.89;100.00
14232;BME280;7200;52.194;9.900;2022-08-19T08:51:34;100246.94;;;20.76;100.00
14232;BME280;7200;52.194;9.900;2022-08-19T08:54:00;100251.47;;;20.76;100.00
14232;BME280;7200;52.194;9.900;2022-08-19T08:56:26;100270.59;;;21.04;100.00
14232;BME280;7200;52.194;9.900;2022-08-19T08:59:03;100278.06;;;21.32;100.00
14232;BME280;7200;52.194;9.900;2022-08-19T09:01:32;100271.72;;;21.33;100.00
14232;BME280;7200;52.194;9.900;2022-08-19T09:03:58;100233.69;;;20.96;100.00
14232;BME280;7200;52.194;9.900;2022-08-19T09:09:27;100233.53;;;20.76;100.00
14232;BME280;7200;52.194;9.900;2022-08-19T09:15:02;100219.88;;;20.79;100.00
14232;BME280;7200;52.194;9.900;2022-08-19T09:17:30;100212.00;;;20.67;100.00
14232;BME280;7200;52.194;9.900;2022-08-19T09:20:03;100235.50;;;20.74;100.00
14232;BME280;7200;52.194;9.900;2022-08-19T09:22:32;100223.44;;;20.57;100.00
14232;BME280;7200;52.194;9.900;2022-08-19T09:24:57;100236.59;;;20.49;100.00
14232;BME280;7200;52.194;9.900;2022-08-19T09:27:24;100225.75;;;20.51;100.00
14232;BME280;7200;52.194;9.900;2022-08-19T09:29:51;100232.94;;;20.61;100.00
14232;BME280;7200;52.194;9.900;2022-08-19T09:32:17;100243.84;;;20.81;100.00
14232;BME280;7200;52.194;9.900;2022-08-19T09:34:43;100232.78;;;20.86;100.00
14232;BME280;7200;52.194;9.900;2022-08-19T09:37:09;100219.75;;;20.70;100.00
14232;BME280;7200;52.194;9.900;2022-08-19T09:39:34;100224.16;;;20.71;100.00
14232;BME280;7200;52.194;9.900;2022-08-19T09:42:00;100232.13;;;20.93;100.00
14232;BME280;7200;52.194;9.900;2022-08-19T09:44:25;100216.41;;;20.89;100.00
14232;BME280;7200;52.194;9.900;2022-08-19T09:46:50;100232.13;;;20.93;100.00
14232;BME280;7200;52.194;9.900;2022-08-19T09:49:18;100217.41;;;20.88;100.00
14232;BME280;7200;52.194;9.900;2022-08-19T09:51:45;100234.44;;;21.19;100.00
14232;BME280;7200;52.194;9.900;2022-08-19T09:54:14;100202.84;;;21.23;100.00
14232;BME280;7200;52.194;9.900;2022-08-19T09:56:39;100207.91;;;21.16;100.00
14232;BME280;7200;52.194;9.900;2022-08-19T09:59:05;100215.69;;;21.40;100.00
14232;BME280;7200;52.194;9.900;2022-08-19T10:01:31;100199.84;;;21.58;100.00
14232;BME280;7200;52.194;9.900;2022-08-19T10:03:59;100208.34;;;21.84;100.00
14232;BME280;7200;52.194;9.900;2022-08-19T10:06:26;100196.56;;;21.75;99.89
14232;BME280;7200;52.194;9.900;2022-08-19T10:08:55;100201.38;;;21.72;100.00
14232;BME280;7200;52.194;9.900;2022-08-19T10:11:21;100197.22;;;21.89;100.00
14232;BME280;7200;52.194;9.900;2022-08-19T10:13:47;100178.16;;;21.71;100.00
14232;BME280;7200;52.194;9.900;2022-08-19T10:16:15;100211.56;;;22.09;100.00
14232;BME280;7200;52.194;9.900;2022-08-19T10:18:41;100200.69;;;22.20;100.00
14232;BME280;7200;52.194;9.900;2022-08-19T10:21:13;100203.50;;;22.40;98.75
14232;BME280;7200;52.194;9.900;2022-08-19T10:23:42;100180.28;;;22.48;95.94
14232;BME280;7200;52.194;9.900;2022-08-19T10:26:13;100180.03;;;22.51;96.13
14232;BME280;7200;52.194;9.900;2022-08-19T10:28:39;100144.38;;;22.49;90.53
14232;BME280;7200;52.194;9.900;2022-08-19T10:31:10;100131.44;;;22.33;88.04
14232;BME280;7200;52.194;9.900;2022-08-19T10:33:36;100093.91;;;22.22;83.44
14232;BME280;7200;52.194;9.900;2022-08-19T10:36:12;100132.41;;;22.23;86.93
14232;BME280;7200;52.194;9.900;2022-08-19T10:38:40;100128.50;;;22.46;87.08
14232;BME280;7200;52.194;9.900;2022-08-19T10:41:08;100147.06;;;22.49;90.19
14232;BME280;7200;52.194;9.900;2022-08-19T10:43:34;100142.94;;;22.55;90.21
14232;BME280;7200;52.194;9.900;2022-08-19T10:46:05;100133.19;;;22.73;88.88
14232;BME280;7200;52.194;9.900;2022-08-19T10:48:30;100093.00;;;22.72;84.37
14232;BME280;7200;52.194;9.900;2022-08-19T10:50:57;100139.97;;;22.87;87.18
14232;BME280;7200;52.194;9.900;2022-08-19T10:53:41;100083.34;;;22.79;81.90
14232;BME280;7200;52.194;9.900;2022-08-19T10:56:06;100091.28;;;22.71;81.42
14232;BME280;7200;52.194;9.900;2022-08-19T10:58:50;100100.22;;;22.81;81.24
14232;BME280;7200;52.194;9.900;2022-08-19T11:01:16;100086.34;;;22.76;80.94
14232;BME280;7200;52.194;9.900;2022-08-19T11:03:41;100107.00;;;23.05;81.98
14232;BME280;7200;52.194;9.900;2022-08-19T11:06:08;100068.59;;;23.12;78.15
14232;BME280;7200;52.194;9.900;2022-08-19T11:08:35;100092.34;;;23.27;78.60
14232;BME280;7200;52.194;9.900;2022-08-19T11:11:03;100074.13;;;23.11;79.57
14232;BME280;7200;52.194;9.900;2022-08-19T11:13:31;100078.47;;;23.22;79.20
14232;BME280;7200;52.194;9.900;2022-08-19T11:16:10;100063.63;;;23.18;79.07
14232;BME280;7200;52.194;9.900;2022-08-19T11:18:38;100067.63;;;23.41;79.22
14232;BME280;7200;52.194;9.900;2022-08-19T11:21:25;100077.59;;;23.68;78.75
14232;BME280;7200;52.194;9.900;2022-08-19T11:23:53;100063.66;;;23.83;77.42
14232;BME280;7200;52.194;9.900;2022-08-19T11:26:20;100062.25;;;23.79;76.31
14232;BME280;7200;52.194;9.900;2022-08-19T11:28:46;100062.22;;;23.88;76.56
14232;BME280;7200;52.194;9.900;2022-08-19T11:31:14;100061.19;;;23.89;75.49
14232;BME280;7200;52.194;9.900;2022-08-19T11:33:40;100044.81;;;23.83;74.70
14232;BME280;7200;52.194;9.900;2022-08-19T11:36:06;100038.22;;;23.58;74.84
14232;BME280;7200;52.194;9.900;2022-08-19T11:38:32;100064.34;;;23.75;77.36
14232;BME280;7200;52.194;9.900;2022-08-19T11:41:00;100053.44;;;23.77;75.55
14232;BME280;7200;52.194;9.900;2022-08-19T11:43:31;100057.31;;;24.02;75.25
14232;BME280;7200;52.194;9.900;2022-08-19T11:45:57;100070.63;;;24.21;75.63
14232;BME280;7200;52.194;9.900;2022-08-19T11:48:23;100068.25;;;24.36;75.55
14232;BME280;7200;52.194;9.900;2022-08-19T11:50:51;100012.66;;;24.53;71.13
14232;BME280;7200;52.194;9.900;2022-08-19T11:53:19;100022.41;;;24.54;70.46
14232;BME280;7200;52.194;9.900;2022-08-19T11:55:49;100000.38;;;24.59;69.08
14232;BME280;7200;52.194;9.900;2022-08-19T11:58:18;99995.97;;;24.58;68.28
14232;BME280;7200;52.194;9.900;2022-08-19T12:00:43;100024.25;;;24.72;69.95
14232;BME280;7200;52.194;9.900;2022-08-19T12:03:11;100025.03;;;24.64;69.13
14232;BME280;7200;52.194;9.900;2022-08-19T12:05:38;99989.38;;;24.34;68.05
14232;BME280;7200;52.194;9.900;2022-08-19T12:08:05;100024.47;;;24.42;69.54
14232;BME280;7200;52.194;9.900;2022-08-19T12:10:31;100010.78;;;24.36;69.18
14232;BME280;7200;52.194;9.900;2022-08-19T12:12:57;100016.00;;;24.37;68.64
14232;BME280;7200;52.194;9.900;2022-08-19T12:15:22;100020.41;;;24.56;69.00
14232;BME280;7200;52.194;9.900;2022-08-19T12:17:48;100014.56;;;24.61;68.04
14232;BME280;7200;52.194;9.900;2022-08-19T12:20:13;99999.84;;;24.55;68.39
14232;BME280;7200;52.194;9.900;2022-08-19T12:22:41;99992.13;;;24.60;67.50
14232;BME280;7200;52.194;9.900;2022-08-19T12:25:10;100022.41;;;24.72;69.08
14232;BME280;7200;52.194;9.900;2022-08-19T12:27:37;99998.13;;;24.72;67.47
14232;BME280;7200;52.194;9.900;2022-08-19T12:30:04;99983.59;;;24.73;66.90
14232;BME280;7200;52.194;9.900;2022-08-19T12:32:29;100033.56;;;25.03;68.82
14232;BME280;7200;52.194;9.900;2022-08-19T12:34:55;100012.44;;;25.25;66.56
14232;BME280;7200;52.194;9.900;2022-08-19T12:37:20;99982.06;;;24.97;65.02
14232;BME280;7200;52.194;9.900;2022-08-19T12:39:46;99995.06;;;25.01;65.75
14232;BME280;7200;52.194;9.900;2022-08-19T12:42:12;99991.78;;;25.16;64.23
14232;BME280;7200;52.194;9.900;2022-08-19T12:44:39;99964.88;;;24.98;63.61
14232;BME280;7200;52.194;9.900;2022-08-19T12:47:06;99962.28;;;24.88;63.04
14232;BME280;7200;52.194;9.900;2022-08-19T12:49:33;99988.28;;;24.89;64.07
14232;BME280;7200;52.194;9.900;2022-08-19T12:52:00;100001.63;;;24.91;65.11
14232;BME280;7200;52.194;9.900;2022-08-19T12:54:26;100014.22;;;25.16;65.27
14232;BME280;7200;52.194;9.900;2022-08-19T12:56:52;99982.78;;;25.33;64.59
14232;BME280;7200;52.194;9.900;2022-08-19T12:59:17;100006.16;;;25.51;64.98
14232;BME280;7200;52.194;9.900;2022-08-19T13:01:44;99991.97;;;25.49;63.23
14232;BME280;7200;52.194;9.900;2022-08-19T13:04:09;99975.06;;;25.47;62.36
14232;BME280;7200;52.194;9.900;2022-08-19T13:06:35;100004.53;;;25.66;62.66